createdAt,value
2017-07-18T00:00:48.220Z,71.63
2017-07-18T00:02:02.374Z,71.53
2017-07-18T00:03:17.905Z,72.2
2017-07-18T00:04:33.611Z,71.53
2017-07-18T00:05:49.110Z,71.82
2017-07-18T00:07:04.568Z,71.82
2017-07-18T00:09:49.360Z,71.82
2017-07-18T00:11:04.959Z,72.01
2017-07-18T00:12:20.043Z,71.92
2017-07-18T00:13:35.514Z,71.82
2017-07-18T00:14:51.210Z,71.63
2017-07-18T00:16:06.597Z,71.92
2017-07-18T00:17:22.055Z,72.39
2017-07-18T00:18:37.542Z,72.39
2017-07-18T00:19:53.251Z,72.3
2017-07-18T00:21:09.143Z,72.59
2017-07-18T00:22:24.598Z,72.59
2017-07-18T00:23:40.049Z,72.78
2017-07-18T00:24:55.739Z,72.68
2017-07-18T00:26:11.364Z,72.68
2017-07-18T00:27:26.829Z,72.88
2017-07-18T00:28:42.280Z,73.35
2017-07-18T00:31:27.056Z,73.35
2017-07-18T00:32:42.484Z,73.16
2017-07-18T00:33:55.351Z,73.35
2017-07-18T00:35:11.047Z,73.26
2017-07-18T00:36:26.512Z,73.26
2017-07-18T00:37:42.118Z,73.45
2017-07-18T00:38:57.588Z,73.35
2017-07-18T00:40:13.314Z,73.61
2017-07-18T00:41:28.752Z,73.83
2017-07-18T00:42:42.929Z,73.83
2017-07-18T00:43:58.446Z,73.93
2017-07-18T00:45:12.839Z,74.18
2017-07-18T00:46:28.251Z,74.47
2017-07-18T00:47:43.691Z,73.99
2017-07-18T00:48:59.167Z,74.37
2017-07-18T00:50:14.844Z,74.66
2017-07-18T00:51:30.304Z,74.37
2017-07-18T00:52:46.004Z,74.37
2017-07-18T00:54:01.431Z,74.57
2017-07-18T00:55:17.125Z,74.47
2017-07-18T00:56:32.562Z,74.76
2017-07-18T00:57:48.044Z,74.76
2017-07-18T00:59:03.476Z,74.95
2017-07-18T01:00:19.169Z,74.66
2017-07-18T01:01:34.561Z,74.85
2017-07-18T01:02:50.053Z,74.76
2017-07-18T01:04:05.431Z,74.85
2017-07-18T01:05:21.142Z,74.85
2017-07-18T01:06:36.816Z,74.66
2017-07-18T01:07:52.351Z,74.37
2017-07-18T01:09:07.798Z,75.14
2017-07-18T01:10:23.503Z,74.76
2017-07-18T01:11:38.928Z,74.95
2017-07-18T01:12:54.587Z,74.66
2017-07-18T01:14:08.754Z,74.85
2017-07-18T01:15:24.482Z,74.85
2017-07-18T01:16:39.948Z,75.04
2017-07-18T01:17:55.447Z,74.76
2017-07-18T01:19:10.852Z,75.14
2017-07-18T01:20:38.909Z,74.95
2017-07-18T01:21:54.358Z,74.76
2017-07-18T01:23:09.772Z,74.85
2017-07-18T01:24:25.173Z,74.95
2017-07-18T01:25:40.942Z,75.04
2017-07-18T01:26:56.634Z,74.82
2017-07-18T01:28:12.190Z,74.85
2017-07-18T01:29:27.682Z,74.82
2017-07-18T01:30:43.428Z,74.76
2017-07-18T01:31:59.231Z,75.52
2017-07-18T01:33:14.682Z,75.01
2017-07-18T01:34:30.151Z,74.82
2017-07-18T01:35:45.891Z,74.62
2017-07-18T01:37:01.344Z,74.72
2017-07-18T01:38:16.796Z,74.82
2017-07-18T01:39:31.013Z,74.91
2017-07-18T01:40:46.882Z,74.82
2017-07-18T01:42:00.892Z,74.91
2017-07-18T01:43:16.329Z,75.29
2017-07-18T01:45:02.688Z,75.2
2017-07-18T01:46:18.376Z,75.1
2017-07-18T01:47:33.964Z,75.01
2017-07-18T01:48:49.432Z,74.72
2017-07-18T01:50:04.895Z,75.01
2017-07-18T01:51:20.591Z,75.1
2017-07-18T01:52:36.190Z,75.48
2017-07-18T01:53:51.656Z,75.39
2017-07-18T01:55:06.765Z,75.48
2017-07-18T01:56:21.132Z,75.39
2017-07-18T01:57:36.652Z,75.48
2017-07-18T01:58:52.123Z,75.68
2017-07-18T02:00:07.605Z,75.39
2017-07-18T02:01:23.307Z,75.77
2017-07-18T02:02:38.787Z,75.77
2017-07-18T02:03:54.288Z,75.77
2017-07-18T02:05:09.712Z,75.93
2017-07-18T02:06:24.407Z,75.93
2017-07-18T02:07:39.862Z,75.93
2017-07-18T02:08:55.450Z,75.83
2017-07-18T02:10:10.933Z,76.02
2017-07-18T02:11:26.265Z,76.02
2017-07-18T02:12:41.926Z,76.02
2017-07-18T02:13:56.089Z,76.02
2017-07-18T02:15:11.482Z,76.02
2017-07-18T02:16:27.165Z,76.02
2017-07-18T02:17:41.340Z,76.02
2017-07-18T02:18:56.772Z,75.93
2017-07-18T02:20:12.363Z,75.83
2017-07-18T02:21:26.726Z,76.12
2017-07-18T02:22:42.137Z,76.02
2017-07-18T02:23:57.511Z,76.5
2017-07-18T02:25:13.004Z,76.6
2017-07-18T02:26:28.691Z,76.31
2017-07-18T02:27:44.170Z,76.31
2017-07-18T02:28:59.784Z,76.31
2017-07-18T02:30:15.257Z,76.4
2017-07-18T02:31:29.307Z,76.4
2017-07-18T02:32:44.766Z,76.5
2017-07-18T02:34:00.278Z,76.4
2017-07-18T02:35:15.755Z,76.4
2017-07-18T02:36:31.497Z,76.4
2017-07-18T02:37:47.071Z,76.4
2017-07-18T02:39:02.717Z,76.6
2017-07-18T02:40:18.203Z,76.31
2017-07-18T02:41:34.017Z,76.6
2017-07-18T02:42:49.463Z,76.4
2017-07-18T02:44:04.912Z,76.31
2017-07-18T02:45:20.257Z,76.5
2017-07-18T02:46:35.998Z,76.12
2017-07-18T02:47:51.473Z,75.83
2017-07-18T02:49:06.943Z,76.06
2017-07-18T02:50:22.452Z,76.21
2017-07-18T02:51:38.315Z,75.83
2017-07-18T02:52:53.771Z,76.5
2017-07-18T02:54:09.230Z,76.31
2017-07-18T02:55:24.680Z,76.4
2017-07-18T02:56:40.413Z,76.21
2017-07-18T02:57:56.057Z,76.21
2017-07-18T02:59:11.447Z,76.31
2017-07-18T03:00:27.082Z,76.31
2017-07-18T03:01:43.134Z,76.31
2017-07-18T03:02:58.774Z,76.5
2017-07-18T03:04:14.324Z,76.02
2017-07-18T03:05:29.801Z,76.4
2017-07-18T03:06:45.530Z,76.31
2017-07-18T03:08:00.971Z,76.31
2017-07-18T03:09:16.429Z,76.31
2017-07-18T03:10:32.013Z,76.5
2017-07-18T03:11:47.826Z,76.31
2017-07-18T03:13:02.993Z,76.31
2017-07-18T03:14:18.662Z,76.21
2017-07-18T03:15:34.515Z,76.31
2017-07-18T03:16:50.176Z,76.21
2017-07-18T03:18:04.318Z,76.5
2017-07-18T03:19:19.793Z,76.5
2017-07-18T03:20:34.150Z,76.31
2017-07-18T03:21:50.076Z,76.6
2017-07-18T03:23:05.334Z,76.31
2017-07-18T03:24:19.373Z,76.31
2017-07-18T03:25:34.825Z,76.6
2017-07-18T03:26:50.743Z,76.12
2017-07-18T03:28:04.866Z,76.02
2017-07-18T03:29:20.431Z,76.12
2017-07-18T03:30:35.897Z,76.31
2017-07-18T03:31:50.086Z,76.31
2017-07-18T03:33:05.608Z,76.6
2017-07-18T03:34:21.141Z,76.4
2017-07-18T03:35:36.619Z,76.5
2017-07-18T03:36:52.506Z,76.4
2017-07-18T03:38:07.026Z,76.4
2017-07-18T03:39:21.210Z,76.5
2017-07-18T03:40:36.643Z,76.69
2017-07-18T03:41:52.182Z,77.08
2017-07-18T03:43:07.882Z,76.79
2017-07-18T03:44:23.409Z,76.5
2017-07-18T03:45:38.909Z,76.5
2017-07-18T03:46:54.453Z,76.31
2017-07-18T03:48:23.754Z,76.4
2017-07-18T03:49:39.326Z,76.79
2017-07-18T03:50:54.989Z,76.79
2017-07-18T03:52:10.804Z,77.08
2017-07-18T03:53:26.284Z,76.79
2017-07-18T03:54:41.699Z,77.08
2017-07-18T03:55:57.224Z,77.08
2017-07-18T03:57:12.956Z,76.79
2017-07-18T03:58:28.433Z,76.98
2017-07-18T03:59:43.903Z,76.98
2017-07-18T04:00:59.358Z,77.36
2017-07-18T04:02:15.083Z,77.17
2017-07-18T04:03:30.772Z,77.17
2017-07-18T04:04:46.517Z,77.17
2017-07-18T04:06:01.991Z,77.08
2017-07-18T04:07:17.841Z,76.6
2017-07-18T04:08:33.724Z,76.79
2017-07-18T04:09:49.214Z,76.5
2017-07-18T04:11:04.993Z,76.31
2017-07-18T04:12:21.307Z,76.6
2017-07-18T04:13:36.968Z,76.31
2017-07-18T04:14:52.417Z,76.6
2017-07-18T04:16:07.945Z,76.6
2017-07-18T04:17:23.676Z,76.69
2017-07-18T04:18:39.449Z,76.6
2017-07-18T04:19:54.927Z,76.5
2017-07-18T04:21:10.123Z,76.4
2017-07-18T04:22:25.802Z,76.31
2017-07-18T04:23:39.872Z,76.44
2017-07-18T04:24:55.325Z,76.31
2017-07-18T04:26:11.084Z,75.93
2017-07-18T04:27:26.783Z,76.25
2017-07-18T04:28:42.246Z,75.87
2017-07-18T04:29:57.681Z,75.68
2017-07-18T04:31:13.203Z,75.87
2017-07-18T04:32:29.173Z,75.68
2017-07-18T04:33:44.631Z,75.77
2017-07-18T04:34:58.847Z,75.68
2017-07-18T04:36:14.401Z,75.48
2017-07-18T04:37:30.099Z,75.29
2017-07-18T04:38:45.531Z,75.39
2017-07-18T04:40:00.974Z,75.39
2017-07-18T04:41:16.457Z,75.58
2017-07-18T04:42:32.332Z,75.1
2017-07-18T04:43:48.039Z,74.91
2017-07-18T04:45:03.505Z,74.82
2017-07-18T04:46:18.937Z,74.91
2017-07-18T04:47:34.681Z,75.29
2017-07-18T04:48:48.818Z,74.95
2017-07-18T04:50:04.396Z,74.85
2017-07-18T04:51:20.467Z,74.85
2017-07-18T04:52:36.221Z,74.95
2017-07-18T04:53:51.848Z,74.57
2017-07-18T04:55:07.456Z,74.66
2017-07-18T04:56:22.934Z,74.76
2017-07-18T04:57:38.668Z,74.66
2017-07-18T04:58:53.796Z,74.95
2017-07-18T05:00:09.264Z,74.85
2017-07-18T05:01:24.958Z,74.47
2017-07-18T05:02:40.748Z,74.66
2017-07-18T05:03:56.182Z,74.66
2017-07-18T05:05:11.680Z,74.18
2017-07-18T05:06:27.121Z,74.27
2017-07-18T05:07:41.361Z,74.08
2017-07-18T05:08:56.917Z,74.08
2017-07-18T05:10:12.414Z,73.93
2017-07-18T05:11:27.928Z,73.61
2017-07-18T05:12:43.661Z,73.9
2017-07-18T05:13:59.117Z,73.51
2017-07-18T05:15:14.588Z,73.83
2017-07-18T05:16:30.058Z,73.55
2017-07-18T05:17:45.786Z,73.7
2017-07-18T05:19:01.275Z,73.55
2017-07-18T05:20:16.765Z,73.65
2017-07-18T05:21:30.894Z,73.74
2017-07-18T05:22:46.704Z,73.35
2017-07-18T05:24:02.220Z,73.55
2017-07-18T05:25:17.702Z,73.16
2017-07-18T05:26:33.161Z,73.16
2017-07-18T05:27:48.870Z,73.45
2017-07-18T05:29:04.513Z,73.45
2017-07-18T05:30:20.336Z,73.26
2017-07-18T05:31:35.829Z,73.45
2017-07-18T05:32:51.814Z,73.65
2017-07-18T05:34:07.269Z,73.45
2017-07-18T05:35:22.962Z,73.16
2017-07-18T05:38:07.837Z,72.97
2017-07-18T05:39:23.307Z,72.81
2017-07-18T05:40:38.758Z,72.72
2017-07-18T05:41:54.204Z,72.91
2017-07-18T05:43:09.573Z,73
2017-07-18T05:44:24.653Z,72.05
2017-07-18T05:45:40.281Z,72.33
2017-07-18T05:46:55.721Z,72.43
2017-07-18T05:48:11.423Z,71.86
2017-07-18T05:49:27.107Z,71.66
2017-07-18T05:50:42.644Z,72.18
2017-07-18T05:51:56.813Z,71.98
2017-07-18T05:53:11.224Z,71.7
2017-07-18T05:54:26.703Z,72.08
2017-07-18T05:55:42.156Z,72.18
2017-07-18T05:56:57.606Z,71.51
2017-07-18T05:58:13.354Z,71.41
2017-07-18T05:59:28.844Z,71.41
2017-07-18T06:00:44.345Z,71.61
2017-07-18T06:01:59.861Z,71.45
2017-07-18T06:03:15.533Z,71.22
2017-07-18T06:04:31.081Z,70.97
2017-07-18T06:05:46.530Z,70.97
2017-07-18T06:07:02.024Z,71.25
2017-07-18T06:08:17.773Z,70.49
2017-07-18T06:09:33.252Z,70.49
2017-07-18T06:10:48.835Z,70.78
2017-07-18T06:12:04.587Z,70.01
2017-07-18T06:13:20.326Z,70.01
2017-07-18T06:14:34.528Z,70.01
2017-07-18T06:15:49.943Z,69.34
2017-07-18T06:17:05.435Z,69.53
2017-07-18T06:18:21.151Z,69.53
2017-07-18T06:19:36.770Z,69.53
2017-07-18T06:20:52.219Z,69.05
2017-07-18T06:22:07.780Z,68.98
2017-07-18T06:23:23.728Z,68.89
2017-07-18T06:24:39.267Z,68.98
2017-07-18T06:25:54.785Z,68.21
2017-07-18T06:27:10.275Z,68.79
2017-07-18T06:28:24.683Z,68.41
2017-07-18T06:29:40.399Z,68.6
2017-07-18T06:30:55.864Z,68.31
2017-07-18T06:32:11.308Z,68.31
2017-07-18T06:33:27.010Z,68.79
2017-07-18T06:34:42.482Z,68.02
2017-07-18T06:35:57.965Z,68.02
2017-07-18T06:37:13.103Z,68.79
2017-07-18T06:38:28.811Z,68.6
2017-07-18T06:39:44.282Z,68.21
2017-07-18T06:40:59.763Z,68.21
2017-07-18T06:42:15.249Z,68.83
2017-07-18T06:43:30.998Z,68.51
2017-07-18T06:44:46.684Z,68.06
2017-07-18T06:46:02.163Z,67.58
2017-07-18T06:47:17.616Z,67.86
2017-07-18T06:48:33.403Z,67.68
2017-07-18T06:49:48.965Z,67.29
2017-07-18T06:51:04.425Z,67.1
2017-07-18T06:52:20.144Z,66.61
2017-07-18T06:53:35.868Z,66.71
2017-07-18T06:54:51.369Z,66.33
2017-07-18T06:56:06.846Z,66.23
2017-07-18T06:57:21.946Z,66.23
2017-07-18T06:58:37.659Z,66.36
2017-07-18T06:59:53.063Z,66.04
2017-07-18T07:01:08.556Z,66.07
2017-07-18T07:02:24.022Z,66.17
2017-07-18T07:03:38.466Z,66.23
2017-07-18T07:04:53.958Z,66.36
2017-07-18T07:06:08.112Z,66.27
2017-07-18T07:07:23.630Z,65.97
2017-07-18T07:08:39.378Z,65.97
2017-07-18T07:09:54.860Z,66.36
2017-07-18T07:11:10.468Z,66.07
2017-07-18T07:12:25.954Z,66.36
2017-07-18T07:13:41.657Z,65.69
2017-07-18T07:14:57.065Z,65.01
2017-07-18T07:16:12.973Z,65.88
2017-07-18T07:17:28.428Z,65.3
2017-07-18T07:18:44.138Z,65.11
2017-07-18T07:19:59.743Z,65.05
2017-07-18T07:21:15.163Z,64.56
2017-07-18T07:22:30.670Z,64.95
2017-07-18T07:23:46.381Z,65.24
2017-07-18T07:25:01.844Z,64.86
2017-07-18T07:26:17.362Z,64.73
2017-07-18T07:27:32.777Z,64.95
2017-07-18T07:28:48.694Z,64.82
2017-07-18T07:30:04.182Z,64.53
2017-07-18T07:31:19.612Z,65.01
2017-07-18T07:32:35.144Z,64.82
2017-07-18T07:33:51.071Z,64.92
2017-07-18T07:35:06.502Z,64.92
2017-07-18T07:36:21.972Z,64.76
2017-07-18T07:37:37.631Z,64.47
2017-07-18T07:38:53.400Z,64.66
2017-07-18T07:40:08.860Z,64.66
2017-07-18T07:41:24.286Z,63.89
2017-07-18T07:43:10.695Z,63.6
2017-07-18T07:44:26.401Z,63.7
2017-07-18T07:45:41.881Z,63.6
2017-07-18T07:46:57.152Z,63.73
2017-07-18T07:48:11.289Z,63.64
2017-07-18T07:49:27.007Z,63.64
2017-07-18T07:50:42.476Z,63.82
2017-07-18T07:51:57.916Z,63.25
2017-07-18T07:53:13.393Z,63.25
2017-07-18T07:54:29.105Z,63.15
2017-07-18T07:55:44.757Z,63.15
2017-07-18T07:56:59.900Z,62.87
2017-07-18T07:58:15.405Z,62.67
2017-07-18T07:59:31.086Z,63.34
2017-07-18T08:00:46.527Z,62.77
2017-07-18T08:02:00.706Z,62.67
2017-07-18T08:03:29.786Z,62.87
2017-07-18T08:04:45.701Z,62.22
2017-07-18T08:06:01.160Z,62.22
2017-07-18T08:07:16.569Z,61.83
2017-07-18T08:08:32.090Z,62.03
2017-07-18T08:09:48.043Z,61.93
2017-07-18T08:11:03.539Z,61.93
2017-07-18T08:12:19.026Z,61.25
2017-07-18T08:13:34.671Z,61.16
2017-07-18T08:14:50.460Z,60.49
2017-07-18T08:16:05.970Z,60.71
2017-07-18T08:17:21.418Z,61.16
2017-07-18T08:18:36.940Z,60.97
2017-07-18T08:19:52.797Z,60.61
2017-07-18T08:21:08.218Z,60.61
2017-07-18T08:22:23.674Z,60.71
2017-07-18T08:23:39.435Z,60.8
2017-07-18T08:24:55.782Z,60.61
2017-07-18T08:26:11.267Z,60.32
2017-07-18T08:27:26.737Z,60.23
2017-07-18T08:28:42.250Z,59.65
2017-07-18T08:29:57.996Z,59.68
2017-07-18T08:31:13.469Z,59.48
2017-07-18T08:32:28.978Z,59.39
2017-07-18T08:33:44.410Z,58.75
2017-07-18T08:34:59.173Z,58.94
2017-07-18T08:36:14.643Z,58.45
2017-07-18T08:37:28.931Z,57.01
2017-07-18T08:38:44.429Z,57.04
2017-07-18T08:40:00.136Z,56.65
2017-07-18T08:41:15.613Z,56.74
2017-07-18T08:42:31.092Z,56.74
2017-07-18T08:43:46.552Z,56.58
2017-07-18T08:45:02.242Z,56.1
2017-07-18T08:46:17.350Z,55.62
2017-07-18T08:47:33.039Z,54.97
2017-07-18T08:48:48.505Z,54.39
2017-07-18T08:50:04.263Z,54.71
2017-07-18T08:51:19.738Z,54.13
2017-07-18T08:52:35.415Z,53.19
2017-07-18T08:53:50.850Z,53.02
2017-07-18T08:55:04.905Z,49.65
2017-07-18T08:56:20.454Z,49.39
2017-07-18T08:57:35.950Z,47.79
2017-07-18T08:58:50.114Z,47.55
2017-07-18T09:00:04.546Z,45.84
2017-07-18T09:01:19.636Z,44.04
2017-07-18T09:02:35.104Z,43.21
2017-07-18T09:03:50.555Z,41.77
2017-07-18T09:05:06.272Z,40.25
2017-07-18T09:06:20.489Z,39.12
2017-07-18T09:07:35.982Z,38.65
2017-07-18T09:08:51.553Z,36.62
2017-07-18T09:10:07.288Z,36.04
2017-07-18T09:11:22.816Z,35.64
2017-07-18T09:12:38.277Z,35.35
2017-07-18T09:13:53.716Z,34.97
2017-07-18T09:15:09.427Z,35.17
2017-07-18T09:16:24.898Z,35.36
2017-07-18T09:17:40.321Z,34.99
2017-07-18T09:18:56.027Z,33.94
2017-07-18T09:20:11.765Z,32.56
2017-07-18T09:21:27.316Z,32.27
2017-07-18T09:22:42.787Z,32.56
2017-07-18T09:23:58.335Z,31.9
2017-07-18T09:25:14.038Z,31.9
2017-07-18T09:26:29.588Z,31.32
2017-07-18T09:27:45.057Z,31.81
2017-07-18T09:29:00.202Z,31.54
2017-07-18T09:30:15.936Z,30.85
2017-07-18T09:31:31.464Z,30.16
2017-07-18T09:32:46.988Z,29.68
2017-07-18T09:34:02.491Z,29.38
2017-07-18T09:35:18.131Z,29.68
2017-07-18T09:36:32.375Z,29.48
2017-07-18T09:37:48.008Z,29.58
2017-07-18T09:39:03.707Z,29.97
2017-07-18T09:40:19.441Z,29.87
2017-07-18T09:41:34.903Z,29.49
2017-07-18T09:42:50.354Z,29
2017-07-18T09:44:05.981Z,28.91
2017-07-18T09:45:21.767Z,28.72
2017-07-18T09:46:35.743Z,28.72
2017-07-18T09:47:51.370Z,28.43
2017-07-18T09:49:06.910Z,27.74
2017-07-18T09:50:22.674Z,26.67
2017-07-18T09:51:36.834Z,27.44
2017-07-18T09:52:52.331Z,27.24
2017-07-18T09:54:06.686Z,28.3
2017-07-18T09:55:22.185Z,28.59
2017-07-18T09:56:37.925Z,28.68
2017-07-18T09:57:53.107Z,29.73
2017-07-18T09:59:08.595Z,30.3
2017-07-18T10:00:22.809Z,30.57
2017-07-18T10:01:35.837Z,30.86
2017-07-18T10:02:51.434Z,31.04
2017-07-18T10:04:05.712Z,31.05
2017-07-18T10:05:19.915Z,30.47
2017-07-18T10:06:35.677Z,31.13
2017-07-18T10:07:51.185Z,32.09
2017-07-18T10:09:06.679Z,32.47
2017-07-18T10:10:22.193Z,32.94
2017-07-18T10:11:37.981Z,33.41
2017-07-18T10:12:53.498Z,33.11
2017-07-18T10:14:09.215Z,33.2
2017-07-18T10:15:24.676Z,33.29
2017-07-18T10:16:40.413Z,33.7
2017-07-18T10:17:55.992Z,33.14
2017-07-18T10:19:11.487Z,33.25
2017-07-18T10:20:26.930Z,32.68
2017-07-18T10:21:42.742Z,31.23
2017-07-18T10:22:56.956Z,30.86
2017-07-18T10:24:12.688Z,30.19
2017-07-18T10:25:28.215Z,30.87
2017-07-18T10:26:44.179Z,28.54
2017-07-18T10:27:58.328Z,29.32
2017-07-18T10:29:12.878Z,28.64
2017-07-18T10:30:28.414Z,29.81
2017-07-18T10:31:44.159Z,29.83
2017-07-18T10:33:11.830Z,28.18
2017-07-18T10:34:27.420Z,28.39
2017-07-18T10:35:43.257Z,26.72
2017-07-18T10:36:58.753Z,26.43
2017-07-18T10:38:14.240Z,26.43
2017-07-18T10:39:29.768Z,27.78
2017-07-18T10:40:45.551Z,27.77
2017-07-18T10:42:01.263Z,27.29
2017-07-18T10:43:16.848Z,28.08
2017-07-18T10:44:32.276Z,27.29
2017-07-18T10:45:48.019Z,27.4
2017-07-18T10:47:03.521Z,27.42
2017-07-18T10:48:19.038Z,26.54
2017-07-18T10:49:34.500Z,27.03
2017-07-18T10:50:50.301Z,26.83
2017-07-18T10:52:05.430Z,26.83
2017-07-18T10:53:20.926Z,26.64
2017-07-18T10:54:36.418Z,26.84
2017-07-18T10:55:52.166Z,26.75
2017-07-18T10:57:07.612Z,26.37
2017-07-18T10:58:21.828Z,26.17
2017-07-18T10:59:37.542Z,26.17
2017-07-18T11:00:53.251Z,26.46
2017-07-18T11:02:08.736Z,26.35
2017-07-18T11:03:22.903Z,25.96
2017-07-18T11:04:38.415Z,25.96
2017-07-18T11:05:54.163Z,25.57
2017-07-18T11:07:09.665Z,25.95
2017-07-18T11:08:38.338Z,25.94
2017-07-18T11:09:54.093Z,26.12
2017-07-18T11:11:10.024Z,26.89
2017-07-18T11:12:25.493Z,27.08
2017-07-18T11:13:41.001Z,26.68
2017-07-18T11:14:56.520Z,26.89
2017-07-18T11:16:12.275Z,27.09
2017-07-18T11:17:27.747Z,27.19
2017-07-18T11:18:43.473Z,26.42
2017-07-18T11:19:58.954Z,26.43
2017-07-18T11:21:13.586Z,26.14
2017-07-18T11:22:29.090Z,26.53
2017-07-18T11:23:44.592Z,26.53
2017-07-18T11:25:00.526Z,26.14
2017-07-18T11:26:16.266Z,26.53
2017-07-18T11:27:31.789Z,26.23
2017-07-18T11:28:47.260Z,25.94
2017-07-18T11:30:02.737Z,25.55
2017-07-18T11:31:18.489Z,26.51
2017-07-18T11:32:32.866Z,26.43
2017-07-18T11:33:48.368Z,25.94
2017-07-18T11:35:03.565Z,26.33
2017-07-18T11:36:19.354Z,26.23
2017-07-18T11:37:34.865Z,25.56
2017-07-18T11:38:50.346Z,25.46
2017-07-18T11:40:05.877Z,25.27
2017-07-18T11:41:20.300Z,25.45
2017-07-18T11:42:35.763Z,25.94
2017-07-18T11:43:51.258Z,25.17
2017-07-18T11:45:06.755Z,25.17
2017-07-18T11:46:22.486Z,25.17
2017-07-18T11:47:38.162Z,24.09
2017-07-18T11:48:53.678Z,25.07
2017-07-18T11:50:09.332Z,25.56
2017-07-18T11:51:25.045Z,25.17
2017-07-18T11:52:40.620Z,25.07
2017-07-18T11:53:56.366Z,24.97
2017-07-18T11:55:11.886Z,24.97
2017-07-18T11:56:27.641Z,24.87
2017-07-18T11:57:43.324Z,25.07
2017-07-18T11:58:59.062Z,25.27
2017-07-18T12:00:14.586Z,24.86
2017-07-18T12:01:30.357Z,25.55
2017-07-18T12:02:45.874Z,25.45
2017-07-18T12:04:01.443Z,25.17
2017-07-18T12:05:17.110Z,24.77
2017-07-18T12:06:32.893Z,25.27
2017-07-18T12:07:48.409Z,25.37
2017-07-18T12:09:04.081Z,25.07
2017-07-18T12:10:19.595Z,25.27
2017-07-18T12:11:35.342Z,25.56
2017-07-18T12:12:50.923Z,25.37
2017-07-18T12:14:06.456Z,24.97
2017-07-18T12:15:21.992Z,24.77
2017-07-18T12:16:36.428Z,24.96
2017-07-18T12:17:51.973Z,25.74
2017-07-18T12:19:07.700Z,24.96
2017-07-18T12:20:23.225Z,25.06
2017-07-18T12:21:38.998Z,25.24
2017-07-18T12:22:54.627Z,25.44
2017-07-18T12:24:10.154Z,25.73
2017-07-18T12:25:25.673Z,26.03
2017-07-18T12:26:40.111Z,26.31
2017-07-18T12:27:55.601Z,26.21
2017-07-18T12:29:24.732Z,26.12
2017-07-18T12:30:40.237Z,26.9
2017-07-18T12:31:55.632Z,26.51
2017-07-18T12:33:11.166Z,26.51
2017-07-18T12:34:26.673Z,26.32
2017-07-18T12:35:40.840Z,26.42
2017-07-18T12:36:56.274Z,26.42
2017-07-18T12:38:11.908Z,26.6
2017-07-18T12:39:27.453Z,26.68
2017-07-18T12:40:42.924Z,26.68
2017-07-18T12:41:58.691Z,27.08
2017-07-18T12:43:14.226Z,27.66
2017-07-18T12:44:29.678Z,27.94
2017-07-18T12:45:45.179Z,27.65
2017-07-18T12:47:00.955Z,27.83
2017-07-18T12:48:16.419Z,28.4
2017-07-18T12:49:32.157Z,28.3
2017-07-18T12:50:47.761Z,29.17
2017-07-18T12:52:03.543Z,28.58
2017-07-18T12:53:19.034Z,28.78
2017-07-18T12:54:34.189Z,28.86
2017-07-18T12:55:49.905Z,29.54
2017-07-18T12:57:05.677Z,29.33
2017-07-18T12:58:21.185Z,30.11
2017-07-18T12:59:36.711Z,30.31
2017-07-18T13:00:52.180Z,31.46
2017-07-18T13:02:07.563Z,31.66
2017-07-18T13:03:23.097Z,31.46
2017-07-18T13:04:37.583Z,32.03
2017-07-18T13:05:53.093Z,31.84
2017-07-18T13:07:08.489Z,32.21
2017-07-18T13:08:23.780Z,32.21
2017-07-18T13:09:39.534Z,32.21
2017-07-18T13:10:55.042Z,31.82
2017-07-18T13:12:10.752Z,32.31
2017-07-18T13:13:26.202Z,32.31
2017-07-18T13:14:40.482Z,32.6
2017-07-18T13:15:55.978Z,32.7
2017-07-18T13:17:11.716Z,33.09
2017-07-18T13:18:27.423Z,33.65
2017-07-18T13:19:40.172Z,33.56
2017-07-18T13:20:55.837Z,33.36
2017-07-18T13:22:11.602Z,33.65
2017-07-18T13:23:27.087Z,33.56
2017-07-18T13:24:42.538Z,33.56
2017-07-18T13:25:58.051Z,33.56
2017-07-18T13:27:13.824Z,33.46
2017-07-18T13:28:42.862Z,33.56
2017-07-18T13:29:58.329Z,33.65
2017-07-18T13:31:14.020Z,33.65
2017-07-18T13:32:29.763Z,33.56
2017-07-18T13:33:43.949Z,33.65
2017-07-18T13:34:59.441Z,33.65
2017-07-18T13:36:14.923Z,33.26
2017-07-18T13:37:30.698Z,33.26
2017-07-18T13:38:46.177Z,32.87
2017-07-18T13:40:01.772Z,33.26
2017-07-18T13:41:16.894Z,33.26
2017-07-18T13:42:32.665Z,32.97
2017-07-18T13:43:48.363Z,32.87
2017-07-18T13:45:04.078Z,32.87
2017-07-18T13:46:19.507Z,32.97
2017-07-18T13:47:35.221Z,33.26
2017-07-18T13:48:50.731Z,33.26
2017-07-18T13:50:06.262Z,33.17
2017-07-18T13:51:22.007Z,33.07
2017-07-18T13:52:37.764Z,33.56
2017-07-18T13:53:53.169Z,33.75
2017-07-18T13:55:07.762Z,33.26
2017-07-18T13:56:23.334Z,33.54
2017-07-18T13:57:39.103Z,33.54
2017-07-18T13:58:54.618Z,34.03
2017-07-18T14:00:10.162Z,33.83
2017-07-18T14:01:25.618Z,34.12
2017-07-18T14:02:40.064Z,34.52
2017-07-18T14:03:55.562Z,35.19
2017-07-18T14:05:11.080Z,35.1
2017-07-18T14:06:26.602Z,35.1
2017-07-18T14:07:42.365Z,35.49
2017-07-18T14:08:57.874Z,35.49
2017-07-18T14:10:13.568Z,35.19
2017-07-18T14:11:29.705Z,35.1
2017-07-18T14:12:45.425Z,35.19
2017-07-18T14:14:00.966Z,35.19
2017-07-18T14:15:16.518Z,34.8
2017-07-18T14:16:32.128Z,34.32
2017-07-18T14:17:47.955Z,34.52
2017-07-18T14:19:03.420Z,34.61
2017-07-18T14:20:18.891Z,34.42
2017-07-18T14:21:34.344Z,34.42
2017-07-18T14:22:50.059Z,34.52
2017-07-18T14:24:05.740Z,34.5
2017-07-18T14:25:21.217Z,34.5
2017-07-18T14:26:35.289Z,35.08
2017-07-18T14:27:51.140Z,35.37
2017-07-18T14:29:06.608Z,35.37
2017-07-18T14:30:22.235Z,35.27
2017-07-18T14:31:37.713Z,35.17
2017-07-18T14:32:53.503Z,35.37
2017-07-18T14:34:07.693Z,35.47
2017-07-18T14:35:23.189Z,35.27
2017-07-18T14:36:38.624Z,35.37
2017-07-18T14:37:54.394Z,35.27
2017-07-18T14:39:09.949Z,35.76
2017-07-18T14:40:25.468Z,35.76
2017-07-18T14:41:40.977Z,36.24
2017-07-18T14:42:56.743Z,36.05
2017-07-18T14:44:12.229Z,35.86
2017-07-18T14:45:27.715Z,35.96
2017-07-18T14:46:43.425Z,36.24
2017-07-18T14:47:59.180Z,36.15
2017-07-18T14:49:14.657Z,36.34
2017-07-18T14:50:30.324Z,36.54
2017-07-18T14:51:45.823Z,36.15
2017-07-18T14:53:01.613Z,36.54
2017-07-18T14:54:17.288Z,36.83
2017-07-18T14:55:32.454Z,36.54
2017-07-18T14:56:48.095Z,36.73
2017-07-18T14:58:03.912Z,36.93
2017-07-18T14:59:19.434Z,36.93
2017-07-18T15:00:35.114Z,37.02
2017-07-18T15:01:50.808Z,36.73
2017-07-18T15:03:06.564Z,36.93
2017-07-18T15:04:20.745Z,36.44
2017-07-18T15:05:36.226Z,36.63
2017-07-18T15:06:51.756Z,36.83
2017-07-18T15:08:07.627Z,36.73
2017-07-18T15:09:23.095Z,36.63
2017-07-18T15:10:38.611Z,36.81
2017-07-18T15:11:54.219Z,37.02
2017-07-18T15:13:08.697Z,37.41
2017-07-18T15:14:24.452Z,37.49
2017-07-18T15:15:39.930Z,37.39
2017-07-18T15:16:54.067Z,37.59
2017-07-18T15:18:09.799Z,37.68
2017-07-18T15:19:25.324Z,37.59
2017-07-18T15:20:40.795Z,37.86
2017-07-18T15:21:56.315Z,37.78
2017-07-18T15:23:12.184Z,37.59
2017-07-18T15:24:27.726Z,37.76
2017-07-18T15:25:43.202Z,38.27
2017-07-18T15:26:58.694Z,38.44
2017-07-18T15:28:14.475Z,38.64
2017-07-18T15:29:29.935Z,38.44
2017-07-18T15:30:45.545Z,38.15
2017-07-18T15:32:01.019Z,38.15
2017-07-18T15:33:16.736Z,38.15
2017-07-18T15:34:32.717Z,38.37
2017-07-18T15:35:48.326Z,38.15
2017-07-18T15:37:02.562Z,38.65
2017-07-18T15:38:18.105Z,37.68
2017-07-18T15:39:33.694Z,37.76
2017-07-18T15:40:49.178Z,38.44
2017-07-18T15:42:04.700Z,38.64
2017-07-18T15:43:20.532Z,38.15
2017-07-18T15:44:36.266Z,37.98
2017-07-18T15:45:51.965Z,38.37
2017-07-18T15:47:07.571Z,38.37
2017-07-18T15:48:23.111Z,38.56
2017-07-18T15:49:37.582Z,38.93
2017-07-18T15:50:53.065Z,38.95
2017-07-18T15:52:08.570Z,38.73
2017-07-18T15:53:24.215Z,39.61
2017-07-18T15:54:39.953Z,39.04
2017-07-18T15:55:55.459Z,38.85
2017-07-18T15:57:11.132Z,39.62
2017-07-18T15:58:26.593Z,38.73
2017-07-18T15:59:42.322Z,39.41
2017-07-18T16:00:57.786Z,39.03
2017-07-18T16:02:13.328Z,38.56
2017-07-18T16:03:28.771Z,38.25
2017-07-18T16:04:44.125Z,38.54
2017-07-18T16:05:58.038Z,39.22
2017-07-18T16:07:12.238Z,39.03
2017-07-18T16:08:27.673Z,38.85
2017-07-18T16:09:43.476Z,38.75
2017-07-18T16:10:58.949Z,38.27
2017-07-18T16:12:14.687Z,38.95
2017-07-18T16:13:30.167Z,38.85
2017-07-18T16:14:45.986Z,39.04
2017-07-18T16:16:01.560Z,38.37
2017-07-18T16:17:17.381Z,38.85
2017-07-18T16:18:33.967Z,38.46
2017-07-18T16:19:53.066Z,38.75
2017-07-18T16:21:10.316Z,39.14
2017-07-18T16:22:28.282Z,39.04